createdAt,value
2024-03-16T00:01:08.513Z,3.20
2024-03-16T00:05:10.149Z,3.42
2024-03-16T00:09:11.996Z,3.97
2024-03-16T00:13:13.766Z,3.28
2024-03-16T00:17:15.599Z,3.53
2024-03-16T00:21:17.120Z,3.30
2024-03-16T00:25:19.117Z,3.50
2024-03-16T00:29:20.654Z,3.33
2024-03-16T00:33:23.075Z,3.13
2024-03-16T00:37:24.731Z,3.20
2024-03-16T00:41:26.291Z,3.47
2024-03-16T00:45:27.856Z,3.70
2024-03-16T00:49:29.497Z,3.50
2024-03-16T00:53:31.220Z,3.35
2024-03-16T00:57:32.997Z,3.20
2024-03-16T01:01:37.932Z,3.53
2024-03-16T01:05:39.489Z,3.30
2024-03-16T01:09:40.977Z,3.30
2024-03-16T01:13:42.532Z,3.15
2024-03-16T01:17:47.020Z,2.72
2024-03-16T01:21:48.690Z,2.60
2024-03-16T01:25:50.737Z,2.85
2024-03-16T01:29:52.360Z,2.67
2024-03-16T01:33:53.939Z,2.60
2024-03-16T01:37:55.503Z,3.05
2024-03-16T01:41:57.579Z,3.03
2024-03-16T01:45:59.356Z,2.83
2024-03-16T01:50:01.022Z,3.13
2024-03-16T01:54:02.708Z,3.08
2024-03-16T01:58:05.814Z,3.00
2024-03-16T02:02:34.671Z,3.53
2024-03-16T02:06:36.510Z,3.00
2024-03-16T02:10:38.042Z,4.30
2024-03-16T02:14:39.554Z,3.70
2024-03-16T02:18:41.170Z,3.55
2024-03-16T02:22:43.776Z,3.95
2024-03-16T02:26:47.005Z,3.53
2024-03-16T02:30:48.805Z,2.67
2024-03-16T02:34:50.302Z,3.20
2024-03-16T02:38:51.815Z,3.10
2024-03-16T02:42:55.426Z,2.70
2024-03-16T02:46:57.705Z,3.00
2024-03-16T02:50:59.164Z,3.05
2024-03-16T02:55:00.782Z,2.90
2024-03-16T02:59:02.876Z,2.58
2024-03-16T03:03:09.202Z,3.00
2024-03-16T03:07:10.969Z,2.78
2024-03-16T03:11:13.930Z,2.80
2024-03-16T03:15:15.513Z,3.00
2024-03-16T03:19:17.247Z,3.28
2024-03-16T03:23:18.916Z,2.60
2024-03-16T03:27:20.375Z,2.60
2024-03-16T03:31:21.970Z,3.13
2024-03-16T03:35:23.477Z,2.63
2024-03-16T03:39:26.438Z,2.65
2024-03-16T03:43:28.689Z,2.80
2024-03-16T03:47:50.877Z,2.50
2024-03-16T03:51:53.130Z,2.83
2024-03-16T03:55:55.235Z,2.80
2024-03-16T03:59:56.762Z,2.95
2024-03-16T04:03:59.864Z,2.70
2024-03-16T04:08:01.939Z,2.55
2024-03-16T04:12:03.677Z,2.70
2024-03-16T04:16:05.402Z,2.55
2024-03-16T04:20:13.757Z,2.70
2024-03-16T04:24:15.418Z,2.20
2024-03-16T04:28:17.739Z,2.53
2024-03-16T04:32:19.468Z,2.75
2024-03-16T04:36:21.463Z,2.20
2024-03-16T04:40:23.356Z,2.47
2024-03-16T04:44:24.923Z,2.22
2024-03-16T04:48:26.437Z,2.50
2024-03-16T04:52:28.321Z,2.53
2024-03-16T04:56:29.841Z,2.45
2024-03-16T05:00:31.393Z,2.00
2024-03-16T05:04:33.510Z,2.25
2024-03-16T05:08:35.144Z,2.28
2024-03-16T05:12:36.681Z,2.92
2024-03-16T05:16:39.456Z,2.45
2024-03-16T05:20:41.552Z,2.20
2024-03-16T05:24:43.089Z,2.08
2024-03-16T05:28:44.563Z,2.50
2024-03-16T05:32:46.093Z,2.03
2024-03-16T05:36:47.552Z,2.22
2024-03-16T05:40:49.052Z,1.65
2024-03-16T05:44:51.663Z,1.98
2024-03-16T05:48:53.194Z,1.70
2024-03-16T05:52:54.746Z,1.42
2024-03-16T05:56:56.188Z,1.70
2024-03-16T06:00:57.880Z,1.65
2024-03-16T06:04:59.677Z,1.48
2024-03-16T06:09:01.345Z,1.70
2024-03-16T06:13:03.724Z,1.85
2024-03-16T06:17:05.190Z,1.48
2024-03-16T06:21:09.307Z,0.93
2024-03-16T06:25:12.651Z,1.10
2024-03-16T06:29:14.206Z,1.42
2024-03-16T06:33:31.420Z,2.30
2024-03-16T06:37:33.096Z,1.40
2024-03-16T06:41:35.189Z,1.60
2024-03-16T06:45:36.797Z,1.40
2024-03-16T06:49:38.303Z,1.70
2024-03-16T06:53:39.778Z,1.58
2024-03-16T06:57:41.310Z,1.13
2024-03-16T07:01:42.818Z,1.35
2024-03-16T07:05:44.352Z,1.10
2024-03-16T07:09:45.936Z,1.40
2024-03-16T07:13:47.500Z,1.77
2024-03-16T07:17:49.069Z,1.63
2024-03-16T07:21:52.006Z,1.10
2024-03-16T07:25:53.536Z,1.77
2024-03-16T07:29:55.018Z,1.52
2024-03-16T07:33:58.472Z,1.33
2024-03-16T07:38:01.603Z,1.50
2024-03-16T07:42:03.131Z,1.63
2024-03-16T07:46:05.391Z,1.35
2024-03-16T07:50:07.345Z,1.23
2024-03-16T07:54:13.113Z,1.70
2024-03-16T07:58:14.756Z,1.40
2024-03-16T08:02:19.448Z,1.70
2024-03-16T08:06:22.204Z,1.50
2024-03-16T08:10:23.709Z,1.23
2024-03-16T08:14:25.816Z,1.30
2024-03-16T08:18:27.284Z,1.17
2024-03-16T08:22:29.019Z,1.48
2024-03-16T08:26:30.700Z,1.88
2024-03-16T08:30:32.245Z,1.00
2024-03-16T08:34:33.806Z,1.23
2024-03-16T08:38:35.386Z,1.10
2024-03-16T08:42:36.824Z,1.40
2024-03-16T08:46:38.483Z,1.60
2024-03-16T08:50:40.091Z,1.90
2024-03-16T08:54:41.582Z,1.55
2024-03-16T08:58:45.480Z,2.20
2024-03-16T09:02:49.586Z,2.15
2024-03-16T09:06:51.142Z,1.80
2024-03-16T09:10:52.676Z,1.77
2024-03-16T09:14:54.460Z,1.85
2024-03-16T09:18:56.435Z,2.00
2024-03-16T09:22:58.951Z,1.55
2024-03-16T09:27:00.505Z,2.42
2024-03-16T09:31:06.007Z,1.65
2024-03-16T09:35:08.844Z,2.40
2024-03-16T09:39:11.970Z,2.10
